首页
METAR-TAF:

METAR-TAF

机场 :

腓特烈港机场

腓特烈港, 德国

纬度: 47-40N, 经度: 009-31E, 海拔: 416米

当前天气观测

该预报发布于10分钟前的22:20 UTC
风速15节,风向西转西南
温度 11°C
湿度 82%
气压 1016 hPa
能见度10公里或以上

METAR: EDNY 152220Z AUTO 24015KT 9999 // BKN025/// BKN039/// OVC080/// 11/08 Q1016

时间: 00:30 (22:30 UTC)

预报

该预报发布于5小时和30分钟前的17:00 UTC
预报有效从15日的 18点(UTC)到 16日的 18点(UTC)
风速10节,风向西转西南
能见度10公里或以上
散云层高于800英尺
多云层高于2500英尺
短暂存在
从 15日的 18点(UTC)到 15日的 24点(UTC)
风速15节,风向西,有时为30节阵风
能見度: 4000
多云层高于800英尺
成为
从 16日的 01点(UTC)到 16日的 03点(UTC)
风速5节,风向西转西南
成为
从 16日的 15点(UTC)到 16日的 17点(UTC)
风速3节,风向多变

TAF: EDNY 151700Z 1518/1618 24010KT 9999 SCT008 BKN025 TEMPO 1518/1524 26015G30KT 4000 RA BKN008 BECMG 1601/1603 24005KT BECMG 1615/1617 VRB03KT

超过4000个机场的气象观测和天气预报(METAR&TAF报告)。

可查询的气象台以黄色和红色小点在地图上表示。

将鼠标移到小点上方,可查看气象台名称。

然后点击查看天气观测和预报。

如需切换地图:点击带黑十字的绿色按钮放大地图;点击带横线的绿色按钮缩小地图;或者点击绿色箭头查看邻近地区的地图。


METAR-TAF: